Time;durP1;ratioP1;P1;durP2;ratioP2;P2;SDS_P1;SDS_P2;PMS_P1;PMS_P2;Temp;Humidity;BMP_temperature;BMP_pressure;BME280_temperature;BME280_humidity;BME280_pressure;Samples;Min_cycle;Max_cycle;Signal;HPM_P1;HPM_P2
2022/05/18 00:01:36;;;;;;;4.90;1.50;;;;;;;7.46;52.21;99574.60;2175792;81;21061;-86
2022/05/18 00:04:38;;;;;;;4.12;2.17;;;;;;;7.45;52.58;99581.59;2164721;81;21594;-86
2022/05/18 00:07:39;;;;;;;3.85;1.98;;;;;;;7.38;52.63;99576.59;2167212;81;21103;-85
2022/05/18 00:10:41;;;;;;;5.53;2.08;;;;;;;7.33;53.05;99581.41;2188015;81;21121;-85
2022/05/18 00:13:43;;;;;;;3.80;2.22;;;;;;;7.29;53.80;99591.26;2167153;81;21019;-85
2022/05/18 00:16:44;;;;;;;7.92;2.85;;;;;;;7.23;54.79;99593.12;2177415;81;21050;-85
2022/05/18 00:19:46;;;;;;;5.12;2.45;;;;;;;7.12;55.25;99591.45;2177198;81;21138;-86
2022/05/18 00:22:48;;;;;;;4.75;2.67;;;;;;;7.03;56.24;99595.35;2160975;81;21121;-86
2022/05/18 00:25:49;;;;;;;3.55;2.60;;;;;;;6.91;55.90;99597.27;2166154;81;21106;-86
2022/05/18 00:28:51;;;;;;;2.67;2.25;;;;;;;6.82;56.17;99600.67;2172466;81;21118;-85
2022/05/18 00:31:52;;;;;;;4.53;1.72;;;;;;;6.79;56.62;99606.16;2171619;80;21107;-85
2022/05/18 00:34:54;;;;;;;3.10;2.40;;;;;;;6.72;56.08;99611.55;2165911;81;21180;-85
2022/05/18 00:37:56;;;;;;;3.15;2.70;;;;;;;6.64;56.21;99613.50;2177792;81;21017;-85
2022/05/18 00:40:58;;;;;;;3.72;2.15;;;;;;;6.54;56.50;99618.68;2159609;80;21071;-86
2022/05/18 00:44:00;;;;;;;4.03;2.37;;;;;;;6.53;56.46;99620.11;2156113;80;21566;-85
2022/05/18 00:47:02;;;;;;;3.35;2.20;;;;;;;6.49;56.49;99625.22;2173686;81;21596;-86
2022/05/18 00:50:03;;;;;;;2.45;2.20;;;;;;;6.45;56.68;99634.25;2177227;81;21089;-85
2022/05/18 00:53:05;;;;;;;4.37;2.70;;;;;;;6.42;56.33;99639.73;2183439;81;22142;-86
2022/05/18 00:56:07;;;;;;;5.50;2.67;;;;;;;6.40;56.58;99641.61;2179722;81;21117;-87
2022/05/18 00:59:08;;;;;;;5.80;2.60;;;;;;;6.40;56.60;99650.72;2169423;81;21001;-84
2022/05/18 01:02:10;;;;;;;4.17;3.02;;;;;;;6.38;56.60;99655.23;2172372;81;21578;-85
2022/05/18 01:05:12;;;;;;;7.03;3.25;;;;;;;6.36;56.72;99657.15;2157749;81;21646;-85
2022/05/18 01:08:14;;;;;;;4.75;3.40;;;;;;;6.37;56.70;99666.12;2171501;80;21042;-87
2022/05/18 01:11:15;;;;;;;5.30;3.35;;;;;;;6.34;56.58;99668.98;2156423;81;21019;-85
2022/05/18 01:14:17;;;;;;;6.28;2.45;;;;;;;6.32;56.72;99672.20;2177470;81;21136;-85
2022/05/18 01:17:19;;;;;;;5.65;2.52;;;;;;;6.32;56.70;99682.61;2155459;81;21086;-85
2022/05/18 01:20:21;;;;;;;7.40;2.67;;;;;;;6.25;56.66;99686.19;2153929;81;21079;-85
2022/05/18 01:23:22;;;;;;;4.05;2.65;;;;;;;6.20;56.70;99682.31;2165937;81;21025;-86
2022/05/18 01:26:24;;;;;;;3.70;2.60;;;;;;;6.20;56.83;99684.91;2166089;81;21026;-86
2022/05/18 01:29:26;;;;;;;4.60;2.90;;;;;;;6.17;56.92;99690.38;2155401;81;21102;-85
2022/05/18 01:32:28;;;;;;;8.35;3.40;;;;;;;6.08;56.94;99693.74;2152876;80;21053;-85
2022/05/18 01:35:29;;;;;;;4.22;2.72;;;;;;;5.97;56.99;99692.86;2164053;81;21098;-85
2022/05/18 01:38:32;;;;;;;4.60;2.22;;;;;;;5.92;57.03;99695.00;2164836;80;21091;-86
2022/05/18 01:41:33;;;;;;;4.53;2.02;;;;;;;5.83;57.26;99698.80;2172728;81;21098;-85
2022/05/18 01:44:35;;;;;;;3.98;2.05;;;;;;;5.73;57.81;99696.59;2161810;81;21034;-86
2022/05/18 01:47:37;;;;;;;5.03;2.12;;;;;;;5.62;57.82;99694.88;2167068;81;21013;-86
2022/05/18 01:50:38;;;;;;;3.80;2.65;;;;;;;5.51;58.26;99699.64;2174136;81;21052;-85
2022/05/18 01:53:40;;;;;;;5.15;2.58;;;;;;;5.49;58.31;99700.24;2164996;81;21070;-85
2022/05/18 01:56:42;;;;;;;2.92;2.40;;;;;;;5.43;58.50;99697.66;2184444;81;21110;-85
2022/05/18 01:59:44;;;;;;;3.37;2.35;;;;;;;5.39;58.78;99701.90;2170371;81;21111;-84
2022/05/18 02:02:45;;;;;;;4.72;2.30;;;;;;;5.38;59.21;99706.27;2169656;81;21612;-85
2022/05/18 02:05:47;;;;;;;5.53;2.70;;;;;;;5.34;59.41;99706.66;2160282;81;21616;-86
2022/05/18 02:08:49;;;;;;;3.17;2.30;;;;;;;5.22;59.52;99707.63;2159255;81;21542;-86
2022/05/18 02:11:51;;;;;;;8.13;2.83;;;;;;;5.22;59.70;99712.35;2166385;81;21025;-86
2022/05/18 02:14:53;;;;;;;2.80;2.20;;;;;;;5.21;60.16;99718.50;2169953;81;21064;-86
2022/05/18 02:17:55;;;;;;;6.97;2.50;;;;;;;5.14;60.48;99711.66;2177766;81;21048;-86
2022/05/18 02:20:56;;;;;;;7.78;3.12;;;;;;;5.05;60.66;99718.04;2168389;80;21097;-85
2022/05/18 02:23:58;;;;;;;7.65;3.67;;;;;;;4.99;60.75;99718.03;2160673;80;21609;-86
2022/05/18 02:27:00;;;;;;;5.60;3.10;;;;;;;4.97;60.76;99719.11;2173756;81;21625;-86
2022/05/18 02:30:02;;;;;;;6.42;3.00;;;;;;;4.94;60.81;99720.18;2152821;81;21046;-88
2022/05/18 02:33:04;;;;;;;8.73;3.37;;;;;;;4.89;60.84;99730.08;2162342;80;21529;-88
2022/05/18 02:36:07;;;;;;;5.42;2.87;;;;;;;4.91;61.34;99737.27;2171033;81;21110;-85
2022/05/18 02:39:08;;;;;;;8.05;3.17;;;;;;;4.87;61.11;99738.94;2157747;81;21008;-87
2022/05/18 02:42:10;;;;;;;8.60;3.17;;;;;;;4.81;61.36;99738.92;2169342;81;21091;-87
2022/05/18 02:45:12;;;;;;;6.05;3.17;;;;;;;4.80;61.51;99739.87;2176994;81;21601;-87
2022/05/18 02:48:14;;;;;;;3.90;2.83;;;;;;;4.83;61.69;99738.33;2164891;80;21071;-87
2022/05/18 02:51:15;;;;;;;6.92;3.47;;;;;;;4.89;61.80;99744.35;2176464;81;21121;-85
2022/05/18 02:57:37;;;;;;;6.87;3.40;;;;;;;4.82;61.98;99747.06;2174545;81;21010;-84
2022/05/18 03:00:39;;;;;;;8.53;3.25;;;;;;;4.83;62.11;99750.00;2161760;81;20995;-84
2022/05/18 03:03:41;;;;;;;6.33;4.10;;;;;;;4.88;62.24;99749.19;2159625;81;21126;-84
2022/05/18 03:06:43;;;;;;;6.30;3.20;;;;;;;4.98;62.13;99754.50;2174233;81;21015;-85
2022/05/18 03:09:44;;;;;;;10.50;3.92;;;;;;;5.23;61.84;99760.73;2165539;81;21026;-84
2022/05/18 03:12:46;;;;;;;7.30;3.80;;;;;;;5.41;61.71;99748.08;2163892;81;21083;-84
2022/05/18 03:15:48;;;;;;;8.80;3.83;;;;;;;5.86;61.72;99756.57;2175892;81;20998;-84
2022/05/18 03:18:50;;;;;;;5.22;3.05;;;;;;;6.38;60.39;99757.51;2156235;81;21137;-84
2022/05/18 03:25:11;;;;;;;5.20;3.15;;;;;;;7.29;58.92;99763.20;2180997;81;21189;-84
2022/05/18 03:28:13;;;;;;;8.68;2.92;;;;;;;7.83;57.84;99765.02;2167192;81;21115;-85
2022/05/18 03:31:16;;;;;;;4.95;2.50;;;;;;;8.24;57.42;99767.84;2161012;81;21608;-85
2022/05/18 03:34:18;;;;;;;6.53;2.85;;;;;;;8.80;55.98;99776.20;2161862;81;21550;-84
2022/05/18 03:37:20;;;;;;;6.25;2.90;;;;;;;9.37;55.50;99775.13;2168155;81;21553;-85
2022/05/18 03:40:26;;;;;;;4.35;3.02;;;;;;;10.04;54.23;99774.81;2176567;81;21068;-85
2022/05/18 03:43:28;;;;;;;6.47;3.00;;;;;;;10.49;53.38;99780.77;2166508;80;21510;-85
2022/05/18 03:46:30;;;;;;;5.08;3.25;;;;;;;11.22;51.66;99780.36;2164933;81;21091;-86
2022/05/18 03:49:32;;;;;;;3.98;2.37;;;;;;;11.75;51.21;99779.71;2162798;81;21725;-85
2022/05/18 03:52:33;;;;;;;4.83;2.15;;;;;;;12.09;49.64;99780.95;2156977;80;21510;-85
2022/05/18 03:55:35;;;;;;;3.80;2.85;;;;;;;12.75;48.58;99793.86;2163129;81;21571;-85
2022/05/18 03:58:37;;;;;;;5.30;2.60;;;;;;;13.12;47.22;99800.84;2175912;81;21091;-85
2022/05/18 04:01:41;;;;;;;4.03;2.55;;;;;;;13.49;45.95;99809.44;2167067;81;21076;-84
2022/05/18 04:04:42;;;;;;;4.45;2.50;;;;;;;13.59;45.09;99804.78;2165815;81;21042;-85
2022/05/18 04:07:44;;;;;;;4.42;2.47;;;;;;;13.86;44.19;99813.51;2159147;81;21126;-85
2022/05/18 04:10:46;;;;;;;2.92;2.45;;;;;;;14.10;43.19;99808.59;2154430;81;21566;-86
2022/05/18 04:13:47;;;;;;;3.42;3.08;;;;;;;14.60;43.09;99818.26;2169778;81;21139;-85
2022/05/18 04:16:50;;;;;;;8.23;3.65;;;;;;;14.62;40.84;99828.94;2162033;81;21178;-85
2022/05/18 04:19:51;;;;;;;4.90;3.55;;;;;;;14.68;40.94;99831.37;2176565;80;21090;-84
2022/05/18 04:22:53;;;;;;;10.28;4.78;;;;;;;14.98;40.23;99830.40;2152821;81;21090;-85
2022/05/18 04:25:55;;;;;;;8.20;4.12;;;;;;;15.22;39.42;99837.24;2178020;81;21105;-84
2022/05/18 04:28:56;;;;;;;4.33;3.12;;;;;;;15.92;39.00;99833.27;2159970;80;21546;-85
2022/05/18 04:31:58;;;;;;;4.67;3.12;;;;;;;16.44;37.66;99839.55;2171438;81;21133;-85
2022/05/18 04:35:00;;;;;;;3.58;2.30;;;;;;;16.66;37.49;99836.91;2161171;81;21007;-85
2022/05/18 04:38:02;;;;;;;6.30;2.58;;;;;;;16.62;35.88;99839.59;2170269;81;21158;-85
2022/05/18 04:41:04;;;;;;;5.03;2.58;;;;;;;16.70;36.54;99843.46;2154899;80;21581;-86
2022/05/18 04:44:05;;;;;;;2.95;2.10;;;;;;;16.85;35.76;99841.55;2178483;81;21121;-85
2022/05/18 04:47:07;;;;;;;2.80;2.40;;;;;;;17.06;34.72;99848.60;2168194;81;21090;-86
2022/05/18 04:50:09;;;;;;;2.92;1.98;;;;;;;17.21;35.29;99849.31;2178049;81;21123;-85
2022/05/18 04:53:11;;;;;;;3.08;1.95;;;;;;;17.37;33.96;99863.23;2171487;81;21145;-85
2022/05/18 04:56:12;;;;;;;2.10;1.50;;;;;;;17.48;33.74;99870.13;2165661;81;21058;-85
2022/05/18 04:59:14;;;;;;;3.27;1.75;;;;;;;17.35;33.63;99873.51;2162106;81;21118;-85
2022/05/18 05:02:16;;;;;;;2.05;1.90;;;;;;;17.11;34.35;99873.17;2160009;81;21159;-84
2022/05/18 05:05:17;;;;;;;1.50;1.40;;;;;;;16.49;34.36;99882.11;2156055;81;21015;-85
2022/05/18 05:08:19;;;;;;;4.80;1.70;;;;;;;16.02;34.50;99881.33;2165785;80;21105;-84
2022/05/18 05:11:22;;;;;;;3.98;1.80;;;;;;;15.50;35.09;99881.46;2163352;81;21114;-84
2022/05/18 05:14:23;;;;;;;2.75;1.85;;;;;;;15.16;35.77;99891.22;2171042;80;21074;-84
2022/05/18 05:17:25;;;;;;;2.72;1.90;;;;;;;14.79;35.96;99887.61;2163910;81;21046;-86
2022/05/18 05:20:27;;;;;;;2.25;1.52;;;;;;;14.61;36.63;99883.97;2166752;81;21109;-86
2022/05/18 05:23:29;;;;;;;3.58;1.90;;;;;;;14.53;36.58;99889.80;2169530;81;21105;-85
2022/05/18 05:26:31;;;;;;;3.87;1.85;;;;;;;14.26;37.39;99893.73;2176256;81;21078;-85
2022/05/18 05:29:33;;;;;;;4.08;1.87;;;;;;;14.08;37.57;99892.22;2179214;81;21083;-84
2022/05/18 05:32:34;;;;;;;3.75;2.12;;;;;;;13.97;37.73;99907.57;2168850;81;21086;-85
2022/05/18 05:35:36;;;;;;;2.60;1.50;;;;;;;13.97;37.95;99912.84;2173754;81;21030;-85
2022/05/18 05:38:38;;;;;;;1.72;1.50;;;;;;;13.85;36.68;99919.81;2160604;80;21044;-87
2022/05/18 05:41:42;;;;;;;1.87;1.60;;;;;;;13.39;37.33;99918.81;2185226;81;21105;-87
2022/05/18 05:44:44;;;;;;;4.05;1.98;;;;;;;12.93;37.67;99921.65;2165694;81;21102;-87
2022/05/18 05:47:45;;;;;;;8.43;2.25;;;;;;;12.92;38.51;99926.58;2171760;81;21138;-87
2022/05/18 05:50:47;;;;;;;6.20;2.20;;;;;;;12.91;38.67;99928.39;2181026;81;21087;-87
2022/05/18 05:53:49;;;;;;;4.22;2.55;;;;;;;12.89;38.99;99927.71;2156095;81;21063;-87
2022/05/18 05:56:50;;;;;;;4.10;2.40;;;;;;;13.08;39.07;99937.09;2175549;81;21119;-87
2022/05/18 05:59:52;;;;;;;3.08;2.40;;;;;;;13.25;38.91;99932.64;2172343;81;21095;-87
2022/05/18 06:02:54;;;;;;;7.70;2.80;;;;;;;13.05;38.79;99932.97;2166019;81;21054;-86
2022/05/18 06:05:56;;;;;;;5.67;2.83;;;;;;;13.12;39.40;99941.52;2159069;81;21129;-87
2022/05/18 06:08:58;;;;;;;7.62;3.40;;;;;;;13.24;39.38;99948.09;2176572;81;21042;-87
2022/05/18 06:12:00;;;;;;;5.35;2.60;;;;;;;13.52;39.60;99947.22;2153813;81;21019;-87
2022/05/18 06:15:01;;;;;;;2.67;1.95;;;;;;;13.62;39.48;99953.95;2150385;81;21090;-88
2022/05/18 06:18:03;;;;;;;5.08;2.87;;;;;;;13.69;38.91;99953.27;2176423;81;21107;-88
2022/05/18 06:21:05;;;;;;;3.35;2.05;;;;;;;13.54;39.39;99954.47;2174758;81;21101;-87
2022/05/18 06:24:06;;;;;;;3.70;1.87;;;;;;;13.57;39.40;99952.31;2181750;81;21021;-87
2022/05/18 06:27:08;;;;;;;3.60;2.00;;;;;;;13.57;39.50;99954.94;2169232;81;22418;-85
2022/05/18 06:30:10;;;;;;;4.17;1.60;;;;;;;13.88;39.58;99956.81;2159297;81;21582;-85
2022/05/18 06:33:11;;;;;;;3.08;1.17;;;;;;;13.79;38.86;99950.75;2175082;81;21125;-86
2022/05/18 06:36:13;;;;;;;1.52;1.10;;;;;;;13.48;38.36;99963.84;2163563;81;21053;-86
2022/05/18 06:39:18;;;;;;;1.50;1.30;;;;;;;12.96;38.55;99959.42;2171255;81;21107;-85
2022/05/18 06:42:22;;;;;;;1.95;1.35;;;;;;;12.80;39.00;99966.80;2189449;81;21074;-85
2022/05/18 06:45:23;;;;;;;3.75;1.72;;;;;;;13.08;39.57;99969.47;2171341;80;21117;-85
2022/05/18 06:48:25;;;;;;;2.52;1.25;;;;;;;13.49;39.30;99979.14;2168210;81;21736;-85
2022/05/18 06:51:27;;;;;;;1.30;1.20;;;;;;;13.49;38.43;99980.45;2153378;80;21014;-86
2022/05/18 06:54:29;;;;;;;4.37;1.60;;;;;;;13.37;38.48;99986.06;2155536;80;21066;-86
2022/05/18 06:57:30;;;;;;;4.00;1.20;;;;;;;13.46;39.15;99980.80;2163092;81;21105;-86
2022/05/18 07:00:32;;;;;;;2.98;1.32;;;;;;;13.51;39.20;99988.50;2155601;81;21097;-85
2022/05/18 07:03:34;;;;;;;3.45;1.05;;;;;;;13.69;39.37;99995.38;2169236;81;21608;-86
2022/05/18 07:06:36;;;;;;;1.62;1.52;;;;;;;13.69;38.73;99992.73;2170524;81;21043;-86
2022/05/18 07:09:38;;;;;;;1.65;1.00;;;;;;;13.57;38.55;99992.28;2168552;81;21539;-85
2022/05/18 07:12:40;;;;;;;3.30;1.20;;;;;;;13.47;38.61;99999.54;2160609;81;21049;-85
2022/05/18 07:15:42;;;;;;;1.92;1.10;;;;;;;13.47;38.41;100000.36;2166077;81;21089;-85
2022/05/18 07:18:44;;;;;;;2.50;1.47;;;;;;;13.46;38.89;99998.72;2153234;80;21050;-86
2022/05/18 07:21:47;;;;;;;1.70;1.00;;;;;;;13.50;38.11;100000.02;2154102;80;21078;-86
2022/05/18 07:24:49;;;;;;;1.40;0.98;;;;;;;13.54;38.45;100005.28;2170601;81;21134;-86
2022/05/18 07:27:51;;;;;;;1.02;0.95;;;;;;;13.58;38.00;100011.02;2154324;81;21003;-86
2022/05/18 07:30:53;;;;;;;2.87;1.37;;;;;;;13.76;38.08;100004.25;2173984;81;21129;-86
2022/05/18 07:33:54;;;;;;;2.27;0.82;;;;;;;13.89;37.11;100017.69;2161706;81;21003;-86
2022/05/18 07:36:56;;;;;;;3.25;1.30;;;;;;;13.75;37.21;100015.27;2169619;80;21075;-86
2022/05/18 07:39:58;;;;;;;2.40;1.17;;;;;;;13.85;37.71;100008.00;2172892;81;21002;-86
2022/05/18 07:43:01;;;;;;;1.87;0.80;;;;;;;14.07;35.42;100018.28;2158648;81;21577;-86
2022/05/18 07:46:02;;;;;;;0.50;0.50;;;;;;;13.76;35.68;100012.14;2160425;81;21064;-86
2022/05/18 07:49:04;;;;;;;3.22;0.72;;;;;;;13.59;35.50;100010.85;2167825;81;21076;-84
2022/05/18 07:52:06;;;;;;;2.37;0.80;;;;;;;13.75;35.43;100015.27;2172591;81;21029;-85
2022/05/18 07:55:08;;;;;;;3.27;0.68;;;;;;;13.74;34.47;100018.89;2168117;81;21026;-85
2022/05/18 07:58:10;;;;;;;2.87;1.07;;;;;;;13.74;34.05;100015.44;2164042;80;21153;-85
2022/05/18 08:01:12;;;;;;;1.42;0.70;;;;;;;13.68;34.21;100019.55;2162190;81;21113;-85
2022/05/18 08:04:14;;;;;;;1.22;0.57;;;;;;;13.65;34.65;100022.03;2161234;80;21090;-84
2022/05/18 08:07:16;;;;;;;1.00;0.72;;;;;;;13.64;33.20;100015.62;2173495;80;21048;-85
2022/05/18 08:16:58;;;;;;;1.27;0.57;;;;;;;13.65;32.95;100019.90;2176475;81;21022;-85
2022/05/18 08:20:01;;;;;;;1.30;0.75;;;;;;;13.72;32.71;100020.06;2182162;81;21102;-84
2022/05/18 08:23:02;;;;;;;1.55;0.70;;;;;;;13.76;32.79;100021.36;2171710;81;21087;-86
2022/05/18 08:26:04;;;;;;;5.00;1.07;;;;;;;13.70;32.83;100021.52;2167390;81;21078;-86
2022/05/18 08:29:06;;;;;;;0.42;0.42;;;;;;;13.69;32.08;100025.64;2171209;81;21113;-86
2022/05/18 08:32:08;;;;;;;0.93;0.90;;;;;;;13.66;31.91;100028.13;2155652;81;21594;-86
2022/05/18 08:35:10;;;;;;;1.60;0.80;;;;;;;13.85;32.50;100027.75;2178679;81;21080;-85
2022/05/18 08:38:11;;;;;;;2.17;0.68;;;;;;;14.10;32.68;100025.86;2172492;81;21707;-85
2022/05/18 08:41:13;;;;;;;2.83;0.55;;;;;;;14.37;32.75;100022.46;2176374;81;21075;-85
2022/05/18 08:44:15;;;;;;;1.20;0.75;;;;;;;14.57;32.40;100019.75;2175452;81;21120;-86
2022/05/18 08:47:16;;;;;;;1.15;1.02;;;;;;;14.72;32.84;100015.38;2156557;81;21154;-85
2022/05/18 08:50:18;;;;;;;2.00;0.60;;;;;;;14.86;32.26;100018.24;2179181;81;21188;-86
2022/05/18 08:53:20;;;;;;;1.15;0.70;;;;;;;14.75;32.30;100012.88;2160234;80;21158;-86
2022/05/18 08:56:23;;;;;;;0.80;0.60;;;;;;;14.67;32.74;100018.20;2153003;80;21082;-85
2022/05/18 08:59:25;;;;;;;1.85;0.95;;;;;;;14.57;32.50;100012.34;2157609;81;21479;-85
2022/05/18 09:02:27;;;;;;;1.30;0.80;;;;;;;14.36;32.71;100013.73;2169144;81;21463;-85
2022/05/18 09:05:29;;;;;;;12.82;2.17;;;;;;;14.36;32.71;100015.06;2172609;81;21099;-86
2022/05/18 09:08:30;;;;;;;1.75;0.85;;;;;;;14.45;33.37;100011.92;2168998;81;21693;-85
2022/05/18 09:11:32;;;;;;;1.90;0.85;;;;;;;14.51;32.63;100011.20;2177938;81;21091;-85
2022/05/18 09:14:34;;;;;;;1.12;0.75;;;;;;;14.38;32.67;100010.92;2163909;81;21141;-86
2022/05/18 09:17:36;;;;;;;1.47;0.90;;;;;;;14.38;32.77;100011.75;2176275;81;21086;-86
2022/05/18 09:20:37;;;;;;;1.42;0.70;;;;;;;14.55;32.61;100013.02;2177877;80;21106;-86
2022/05/18 09:23:40;;;;;;;2.72;0.70;;;;;;;14.55;32.49;100011.20;2175212;81;21126;-86
2022/05/18 09:26:41;;;;;;;1.30;0.50;;;;;;;14.57;32.44;100005.25;2166350;81;21221;-86
2022/05/18 09:29:43;;;;;;;1.65;0.90;;;;;;;14.68;31.99;100002.20;2159219;81;21079;-85
2022/05/18 09:32:45;;;;;;;1.47;0.80;;;;;;;14.85;31.44;100013.97;2165213;81;21094;-85
2022/05/18 09:35:46;;;;;;;0.72;0.50;;;;;;;14.73;30.70;100004.34;2169186;81;21053;-86
2022/05/18 09:38:50;;;;;;;1.82;0.50;;;;;;;14.74;30.20;100016.02;2179291;81;21158;-85
2022/05/18 09:41:52;;;;;;;0.50;0.50;;;;;;;14.78;29.10;100013.34;2165269;80;21134;-85
2022/05/18 09:44:55;;;;;;;1.30;0.60;;;;;;;14.78;29.95;100004.61;2154003;81;21146;-86
2022/05/18 09:47:56;;;;;;;2.15;0.90;;;;;;;14.91;29.47;100010.64;2176629;81;21078;-86
2022/05/18 09:50:59;;;;;;;1.05;0.80;;;;;;;14.99;29.75;100004.78;2173064;80;21193;-86
2022/05/18 09:54:01;;;;;;;0.40;0.40;;;;;;;15.25;30.27;99997.81;2161449;81;21052;-86
2022/05/18 09:57:04;;;;;;;0.68;0.30;;;;;;;15.47;29.65;100001.42;2141972;81;21002;-86
2022/05/18 10:00:06;;;;;;;1.47;0.60;;;;;;;15.49;29.39;100002.05;2156850;81;21074;-86
2022/05/18 10:09:49;;;;;;;0.65;0.53;;;;;;;15.30;29.38;99999.93;2156001;81;21530;-87
2022/05/18 10:12:50;;;;;;;1.70;0.40;;;;;;;15.04;29.50;99994.53;2168065;81;21603;-86
2022/05/18 10:15:52;;;;;;;0.40;0.40;;;;;;;14.90;29.53;99994.47;2172566;81;21581;-87
2022/05/18 10:18:54;;;;;;;0.80;0.40;;;;;;;14.95;29.33;99992.14;2168527;81;21585;-86
2022/05/18 10:21:56;;;;;;;1.45;0.50;;;;;;;15.13;29.86;99984.73;2180554;81;21118;-87
2022/05/18 10:24:57;;;;;;;0.98;0.47;;;;;;;15.32;29.07;99978.95;2177100;81;21124;-87
2022/05/18 10:27:59;;;;;;;0.75;0.53;;;;;;;15.45;28.91;99984.92;2161641;81;21091;-87
2022/05/18 10:31:01;;;;;;;5.67;0.62;;;;;;;15.51;29.05;99973.66;2159498;81;21213;-87
2022/05/18 10:34:03;;;;;;;0.72;0.35;;;;;;;15.62;29.20;99975.05;2159977;81;21095;-87
2022/05/18 10:37:04;;;;;;;0.75;0.30;;;;;;;15.68;27.93;99973.02;2164669;80;21250;-87
2022/05/18 10:40:06;;;;;;;2.42;0.40;;;;;;;15.74;27.80;99963.56;2161370;81;21095;-86
2022/05/18 10:43:08;;;;;;;0.88;0.57;;;;;;;15.81;28.11;99962.62;2184823;81;21585;-87
2022/05/18 10:46:10;;;;;;;2.27;0.40;;;;;;;15.92;28.33;99970.11;2168229;81;21030;-86
2022/05/18 10:49:13;;;;;;;1.90;0.78;;;;;;;16.09;28.60;99962.80;2143765;80;21130;-87
2022/05/18 10:52:15;;;;;;;0.50;0.50;;;;;;;16.20;28.06;99952.25;2178179;81;21110;-86
2022/05/18 10:55:17;;;;;;;1.50;0.80;;;;;;;16.32;27.58;99965.80;2171955;81;21178;-87
2022/05/18 10:58:18;;;;;;;1.42;0.57;;;;;;;16.46;28.00;99959.66;2155716;80;21068;-86
2022/05/18 11:01:22;;;;;;;0.62;0.62;;;;;;;16.64;28.08;99961.38;2168927;81;21836;-87
2022/05/18 11:04:23;;;;;;;0.62;0.60;;;;;;;16.86;28.23;99957.42;2164509;80;21110;-86
2022/05/18 11:07:25;;;;;;;0.50;0.50;;;;;;;16.89;28.05;99959.17;2166488;81;21145;-87
2022/05/18 11:10:27;;;;;;;0.50;0.40;;;;;;;16.99;27.73;99954.88;2163477;81;21019;-87
2022/05/18 11:13:28;;;;;;;0.80;0.75;;;;;;;17.12;28.12;99956.33;2170584;81;21648;-87
2022/05/18 11:16:30;;;;;;;0.30;0.30;;;;;;;17.07;25.89;99954.75;2153005;81;21578;-87
2022/05/18 11:19:32;;;;;;;0.30;0.30;;;;;;;16.88;25.62;99957.55;2153055;81;21557;-85
2022/05/18 11:22:34;;;;;;;0.80;0.50;;;;;;;16.67;26.17;99949.59;2152685;81;21626;-84
2022/05/18 11:25:36;;;;;;;0.72;0.50;;;;;;;16.75;26.70;99947.67;2154199;81;21054;-84
2022/05/18 11:28:38;;;;;;;1.35;0.53;;;;;;;16.96;26.83;99946.83;2170587;81;21045;-84
2022/05/18 11:31:40;;;;;;;1.37;0.70;;;;;;;17.10;26.90;99946.92;2182244;81;21145;-83
2022/05/18 11:34:41;;;;;;;1.52;0.33;;;;;;;17.21;26.74;99945.09;2158750;81;21581;-83
2022/05/18 11:37:43;;;;;;;2.58;0.68;;;;;;;17.38;27.46;99945.63;2152983;80;21012;-86
2022/05/18 11:40:45;;;;;;;2.08;0.50;;;;;;;17.55;27.62;99941.13;2159175;81;21023;-86
2022/05/18 11:43:46;;;;;;;2.05;0.70;;;;;;;17.66;27.52;99943.77;2155065;81;21502;-87
2022/05/18 11:46:48;;;;;;;0.50;0.50;;;;;;;17.84;27.73;99940.63;2173118;81;21065;-86
2022/05/18 11:49:50;;;;;;;2.75;0.62;;;;;;;17.96;27.70;99936.90;2183976;81;21117;-86
2022/05/18 11:52:52;;;;;;;1.20;0.53;;;;;;;18.12;27.28;99941.86;2186473;81;21025;-86
2022/05/18 11:55:53;;;;;;;1.87;0.50;;;;;;;18.23;27.29;99937.81;2170621;81;21057;-87
2022/05/18 11:59:10;;;;;;;2.02;0.62;;;;;;;18.12;25.78;99941.86;2152898;81;20980;-86
2022/05/18 12:02:01;;;;;;;2.30;0.70;;;;;;;18.06;26.75;99939.48;2153292;81;21134;-87
2022/05/18 12:05:02;;;;;;;4.50;1.00;;;;;;;18.06;26.04;99939.48;2165038;81;21137;-87
2022/05/18 12:08:10;;;;;;;1.65;0.53;;;;;;;17.93;26.31;99943.42;2169744;81;21087;-86
2022/05/18 12:11:07;;;;;;;1.07;0.30;;;;;;;17.93;25.79;99946.58;2173255;81;21088;-89
2022/05/18 12:14:09;;;;;;;1.67;0.50;;;;;;;17.87;26.19;99948.17;2168470;81;21177;-86
2022/05/18 12:17:11;;;;;;;4.42;0.62;;;;;;;17.84;25.82;99937.98;2165418;80;21139;-87
2022/05/18 12:20:13;;;;;;;3.15;1.37;;;;;;;17.78;26.09;99946.70;2164765;81;21088;-87
2022/05/18 12:23:15;;;;;;;0.53;0.50;;;;;;;17.74;26.82;99944.96;2178942;81;21082;-86
2022/05/18 12:26:17;;;;;;;0.80;0.55;;;;;;;17.90;26.21;99941.95;2182374;81;21155;-85
2022/05/18 12:29:18;;;;;;;0.40;0.40;;;;;;;17.95;26.05;99936.08;2176858;81;21098;-85
2022/05/18 12:32:20;;;;;;;0.65;0.40;;;;;;;17.97;25.99;99938.53;2168609;80;21157;-84
2022/05/18 12:35:22;;;;;;;0.55;0.55;;;;;;;17.91;25.83;99940.94;2160349;81;21601;-84
2022/05/18 12:38:24;;;;;;;0.68;0.40;;;;;;;17.90;25.81;99939.81;2163000;81;21102;-85
2022/05/18 12:41:26;;;;;;;0.60;0.60;;;;;;;17.83;25.44;99941.13;2171441;81;21393;-85
2022/05/18 12:44:28;;;;;;;1.98;0.70;;;;;;;17.73;26.03;99939.33;2179952;81;21200;-85
2022/05/18 12:47:30;;;;;;;0.50;0.42;;;;;;;17.75;26.37;99928.56;2167171;81;21118;-85
2022/05/18 12:50:31;;;;;;;3.17;0.70;;;;;;;17.80;26.50;99930.91;2167881;81;21149;-86
2022/05/18 12:53:33;;;;;;;2.47;0.50;;;;;;;17.90;26.88;99930.03;2168265;81;21537;-85
2022/05/18 12:56:35;;;;;;;1.62;1.45;;;;;;;18.03;27.28;99931.94;2182482;81;21026;-85
2022/05/18 12:59:37;;;;;;;1.47;0.30;;;;;;;18.19;26.90;99937.38;2172291;81;21070;-86
2022/05/18 13:02:38;;;;;;;2.35;0.68;;;;;;;18.16;25.45;99933.30;2162917;80;21077;-86
2022/05/18 13:05:40;;;;;;;4.25;0.70;;;;;;;18.13;26.84;99927.08;2159651;80;21026;-85
2022/05/18 13:08:42;;;;;;;4.78;1.47;;;;;;;18.28;26.58;99919.45;2166409;81;21051;-85
2022/05/18 13:11:43;;;;;;;2.33;0.62;;;;;;;18.44;27.09;99916.44;2166478;81;21061;-85
2022/05/18 13:14:45;;;;;;;1.42;0.53;;;;;;;18.66;26.98;99918.46;2165104;81;21090;-85
2022/05/18 13:17:47;;;;;;;2.05;0.40;;;;;;;18.71;25.89;99925.28;2166027;81;21444;-85
2022/05/18 13:20:51;;;;;;;1.32;0.25;;;;;;;18.53;26.24;99911.77;2182932;81;21125;-85
2022/05/18 13:23:53;;;;;;;1.47;0.50;;;;;;;18.39;24.43;99920.22;2153795;81;21553;-86
2022/05/18 13:26:54;;;;;;;1.95;0.30;;;;;;;18.21;23.83;99921.30;2155116;80;21518;-85
2022/05/18 13:29:56;;;;;;;0.90;0.53;;;;;;;18.06;24.13;99918.80;2167096;81;21582;-85
2022/05/18 13:32:58;;;;;;;5.22;1.22;;;;;;;18.00;24.73;99915.09;2176428;81;21049;-86
2022/05/18 13:35:59;;;;;;;2.17;0.50;;;;;;;18.06;24.13;99907.68;2156121;81;21049;-85
2022/05/18 13:39:01;;;;;;;3.42;0.50;;;;;;;18.22;25.52;99902.53;2174453;81;21166;-85
2022/05/18 13:42:03;;;;;;;2.58;1.87;;;;;;;18.27;23.87;99906.72;2166363;80;22139;-86
2022/05/18 13:45:05;;;;;;;1.67;1.30;;;;;;;18.16;24.74;99896.19;2169040;81;21079;-85
2022/05/18 13:48:06;;;;;;;2.02;0.70;;;;;;;18.11;24.80;99908.42;2177954;81;21103;-85
2022/05/18 13:51:09;;;;;;;1.52;0.40;;;;;;;18.18;24.62;99897.31;2156431;81;21105;-85
2022/05/18 13:54:11;;;;;;;1.95;0.55;;;;;;;18.34;24.27;99897.45;2152880;81;21079;-85
2022/05/18 13:57:12;;;;;;;0.75;0.50;;;;;;;18.41;24.98;99887.17;2167817;80;21090;-86
2022/05/18 14:00:14;;;;;;;1.32;0.40;;;;;;;18.47;24.67;99886.37;2165704;81;21122;-85
2022/05/18 14:03:16;;;;;;;2.17;0.50;;;;;;;18.59;24.76;99880.47;2164969;81;21049;-84
2022/05/18 14:06:21;;;;;;;3.83;0.60;;;;;;;18.55;24.01;99878.71;2165962;81;21050;-86
2022/05/18 14:09:21;;;;;;;0.50;0.50;;;;;;;18.33;24.06;99887.88;2160294;81;21553;-85
2022/05/18 14:12:23;;;;;;;0.55;0.55;;;;;;;18.27;24.21;99878.87;2165587;81;21063;-85
2022/05/18 14:15:25;;;;;;;1.60;0.80;;;;;;;18.37;25.32;99875.33;2180377;81;21610;-86
2022/05/18 14:18:26;;;;;;;1.02;0.60;;;;;;;18.57;24.54;99866.59;2164977;81;21526;-86
2022/05/18 14:21:28;;;;;;;0.35;0.35;;;;;;;18.70;24.94;99867.95;2152988;81;21039;-88
2022/05/18 14:24:32;;;;;;;0.55;0.42;;;;;;;18.82;24.73;99869.47;2160673;81;21044;-87
2022/05/18 14:27:33;;;;;;;0.68;0.62;;;;;;;18.93;24.66;99864.37;2173051;81;21588;-85
2022/05/18 14:30:35;;;;;;;0.70;0.60;;;;;;;18.99;24.59;99867.52;2164654;81;21011;-85
2022/05/18 14:33:37;;;;;;;1.87;0.50;;;;;;;19.01;24.07;99864.65;2154343;81;21031;-85
2022/05/18 14:36:38;;;;;;;0.70;0.50;;;;;;;19.00;23.98;99863.02;2160779;80;21091;-85